createdAt,value
2022-10-20T03:03:14.932Z,2.58
2022-10-20T03:05:46.150Z,2.85
2022-10-20T03:08:17.882Z,2.30
2022-10-20T03:10:52.507Z,3.15
2022-10-20T03:18:14.118Z,3.22
2022-10-20T03:24:22.246Z,2.47
2022-10-20T03:27:06.236Z,2.70
2022-10-20T03:29:50.127Z,2.33
2022-10-20T09:28:24.337Z,3.92
2022-10-20T09:30:51.744Z,3.88
2022-10-20T09:33:29.022Z,3.40
2022-10-20T09:36:03.597Z,4.35
2022-10-20T09:38:56.785Z,3.97
2022-10-20T09:41:26.575Z,4.10
2022-10-20T09:44:05.331Z,3.90
2022-10-20T09:46:40.025Z,4.10
2022-10-20T09:49:07.945Z,3.35
2022-10-20T09:51:34.695Z,3.42
2022-10-20T09:56:42.604Z,3.40
2022-10-20T09:59:29.307Z,3.80
2022-10-20T10:02:15.604Z,3.83
2022-10-20T10:04:55.489Z,3.42
2022-10-20T10:07:30.446Z,3.22
2022-10-20T10:10:05.712Z,3.22
2022-10-20T10:12:38.281Z,3.50
2022-10-20T10:15:21.716Z,2.95
2022-10-20T10:18:01.500Z,3.42
2022-10-20T10:20:48.758Z,3.47
2022-10-20T10:23:48.943Z,3.28
2022-10-20T10:26:43.736Z,3.75
2022-10-20T10:29:29.522Z,3.70
2022-10-20T10:32:04.672Z,2.83
2022-10-20T10:34:51.839Z,3.25
2022-10-20T10:39:46.493Z,3.63
2022-10-20T10:42:48.218Z,3.60
2022-10-20T10:45:49.663Z,3.95
2022-10-20T10:48:34.427Z,3.15
2022-10-20T10:51:05.842Z,3.10
2022-10-20T10:53:59.544Z,3.10
2022-10-20T10:56:47.598Z,2.90
2022-10-20T11:00:14.492Z,2.97
2022-10-20T11:02:49.290Z,3.15
2022-10-20T11:05:56.816Z,2.80
2022-10-20T11:09:24.219Z,2.53
2022-10-20T11:12:18.856Z,4.03
2022-10-20T11:15:16.454Z,2.72
2022-10-20T11:18:34.291Z,3.00
2022-10-20T11:21:39.730Z,2.58
2022-10-20T11:24:38.197Z,2.67
2022-10-20T11:30:10.165Z,2.42
2022-10-20T11:32:52.748Z,3.20
2022-10-20T11:40:07.707Z,2.60
2022-10-20T11:43:01.611Z,2.58
2022-10-20T11:45:45.319Z,3.03
2022-10-20T11:48:23.857Z,3.03
2022-10-20T11:51:08.715Z,2.75
2022-10-20T11:54:00.936Z,2.55
2022-10-20T11:57:13.513Z,2.45
2022-10-20T12:00:04.846Z,2.47
2022-10-20T12:03:04.684Z,2.28
2022-10-20T12:06:23.096Z,2.10
2022-10-20T12:09:41.851Z,2.47
2022-10-20T12:16:36.877Z,1.90
2022-10-20T12:19:26.417Z,2.28
2022-10-20T12:29:42.404Z,2.05
2022-10-20T12:32:36.815Z,1.55
2022-10-20T12:35:32.112Z,1.90
2022-10-20T12:38:36.729Z,1.88
2022-10-20T12:41:30.672Z,1.75
2022-10-20T12:47:55.625Z,2.00
2022-10-20T12:50:46.177Z,1.90
2022-10-20T13:00:33.096Z,1.90
2022-10-20T13:03:51.303Z,1.90
2022-10-20T13:07:13.501Z,2.05
2022-10-20T13:09:59.015Z,1.80
2022-10-20T13:12:40.004Z,2.50
2022-10-20T13:15:14.058Z,1.95
2022-10-20T13:18:07.916Z,1.98
2022-10-20T13:21:15.273Z,1.90
2022-10-20T13:24:44.915Z,1.60
2022-10-20T13:27:16.455Z,2.00
2022-10-20T13:30:13.402Z,2.47
2022-10-20T13:36:44.658Z,2.50
2022-10-20T13:39:29.453Z,1.90
2022-10-20T13:42:56.014Z,1.98
2022-10-20T13:45:55.302Z,2.08
2022-10-20T14:07:53.408Z,2.30
2022-10-20T14:25:50.279Z,2.10
2022-10-20T14:28:19.851Z,2.30
2022-10-20T14:30:55.616Z,2.78
2022-10-20T14:33:32.905Z,2.75
2022-10-20T14:36:02.760Z,2.30
2022-10-20T14:38:35.615Z,2.72
2022-10-20T14:41:05.215Z,2.00
2022-10-20T14:43:47.593Z,2.15
2022-10-20T14:46:35.820Z,2.45
2022-10-20T14:49:52.298Z,1.98
2022-10-20T14:55:40.808Z,2.22
2022-10-20T14:58:35.015Z,2.70
2022-10-20T15:01:26.365Z,2.25
2022-10-20T15:04:23.701Z,2.05
2022-10-20T15:07:22.577Z,2.15
2022-10-20T15:10:18.328Z,3.70
2022-10-20T15:13:28.016Z,2.03
2022-10-20T15:23:38.166Z,2.53
2022-10-20T15:39:04.610Z,2.53
2022-10-20T15:41:36.096Z,2.38
2022-10-20T15:44:36.961Z,2.30
2022-10-20T15:47:23.458Z,2.58
2022-10-20T15:49:50.444Z,2.67
2022-10-20T16:03:58.233Z,2.90
2022-10-20T16:07:03.043Z,3.38
2022-10-20T16:09:30.571Z,3.30
2022-10-20T16:12:36.854Z,3.00
2022-10-20T16:15:05.061Z,3.38
2022-10-20T16:17:35.737Z,3.70
2022-10-20T16:23:34.547Z,3.63
2022-10-20T16:36:23.195Z,3.78
2022-10-20T16:39:13.492Z,3.60
2022-10-20T16:42:06.611Z,4.18
2022-10-20T16:44:35.847Z,3.90
2022-10-20T16:51:11.433Z,4.85
2022-10-20T16:54:20.896Z,4.50
2022-10-20T16:57:00.593Z,4.40
2022-10-20T18:02:31.647Z,5.32
2022-10-20T18:28:09.117Z,5.05
2022-10-20T18:31:29.168Z,4.45
2022-10-20T21:28:28.173Z,5.15
2022-10-20T21:31:18.183Z,5.57
2022-10-20T21:33:59.187Z,5.55
2022-10-20T21:36:31.502Z,5.88
2022-10-20T21:39:32.417Z,6.07
2022-10-20T21:42:19.596Z,5.47
2022-10-20T21:44:48.401Z,4.20
2022-10-20T21:47:21.427Z,5.78
2022-10-20T21:49:48.012Z,5.05
2022-10-20T21:52:14.541Z,5.03
2022-10-20T21:54:41.076Z,5.50
2022-10-20T21:57:07.557Z,5.65
2022-10-20T21:59:34.115Z,5.35
2022-10-20T22:02:02.144Z,5.35
2022-10-20T22:04:30.012Z,4.93
2022-10-20T22:11:08.229Z,5.82
2022-10-20T22:13:35.206Z,5.03
2022-10-20T22:16:05.613Z,4.72
2022-10-20T22:18:32.437Z,5.45
2022-10-20T22:23:39.277Z,5.38
2022-10-20T22:28:35.979Z,4.95
2022-10-20T22:31:03.214Z,5.53
2022-10-20T22:33:36.400Z,5.38
2022-10-20T22:36:04.753Z,4.97
2022-10-20T22:38:31.286Z,5.47
2022-10-20T22:41:07.151Z,5.47
2022-10-20T22:43:39.095Z,6.22
2022-10-20T22:46:06.126Z,6.35
2022-10-20T22:48:32.979Z,5.88
2022-10-20T22:51:00.554Z,6.90
2022-10-20T22:53:27.083Z,6.50
2022-10-20T22:55:54.574Z,6.35
2022-10-20T22:58:24.373Z,6.88
2022-10-20T23:00:51.208Z,6.63
2022-10-20T23:05:44.286Z,6.35
2022-10-20T23:08:10.873Z,6.00
2022-10-20T23:10:37.542Z,6.65
2022-10-20T23:13:04.409Z,6.68
2022-10-20T23:15:31.055Z,7.28
2022-10-20T23:17:57.762Z,8.00
2022-10-20T23:20:24.421Z,7.03
2022-10-20T23:22:50.989Z,7.13
2022-10-20T23:25:17.638Z,6.60
2022-10-20T23:27:44.275Z,6.65
2022-10-20T23:30:11.017Z,6.97
2022-10-20T23:35:04.649Z,7.82
2022-10-20T23:37:31.203Z,7.13
2022-10-20T23:39:57.710Z,7.03
2022-10-20T23:42:24.231Z,7.40
2022-10-20T23:44:50.860Z,6.55
2022-10-20T23:47:17.514Z,7.25
2022-10-20T23:49:44.256Z,6.45
2022-10-20T23:54:37.464Z,6.82
2022-10-20T23:59:59.942Z,7.45
